Time;durP1;ratioP1;P1;durP2;ratioP2;P2;SDS_P1;SDS_P2;PMS_P1;PMS_P2;Temp;Humidity;BMP_temperature;BMP_pressure;BME280_temperature;BME280_humidity;BME280_pressure;Samples;Min_cycle;Max_cycle;Signal;HPM_P1;HPM_P2
2021/03/01 02:57:58;;;;;;;0.93;0.70;;;24.00;37.20;;;;;;5046242;28;20459;-25
2021/03/01 03:00:25;;;;;;;1.17;0.73;;;24.30;34.40;;;;;;5055948;28;20131;-26
2021/03/01 03:02:53;;;;;;;1.73;0.88;;;24.40;33.90;;;;;;5048282;28;20081;-28
2021/03/01 03:05:21;;;;;;;1.17;0.73;;;24.40;33.50;;;;;;5048509;28;20164;-24
2021/03/01 03:07:48;;;;;;;1.02;0.68;;;24.50;33.30;;;;;;5051809;28;20069;-24
2021/03/01 03:13:21;;;;;;;23.77;7.30;;;22.60;15.00;;;;;;5112170;27;20458;-69
2021/03/01 03:15:52;;;;;;;28.95;8.23;;;19.70;15.30;;;;;;5117864;27;20167;-69
2021/03/01 03:18:20;;;;;;;33.88;8.48;;;17.70;16.10;;;;;;5115109;27;20075;-69
2021/03/01 03:20:47;;;;;;;37.15;8.95;;;16.70;16.90;;;;;;5114080;28;20495;-69
2021/03/01 03:23:14;;;;;;;44.53;8.70;;;16.20;17.80;;;;;;5093152;28;20080;-69
2021/03/01 03:25:40;;;;;;;37.30;9.38;;;15.80;19.00;;;;;;5114108;28;20117;-69
2021/03/01 03:28:07;;;;;;;;;;;15.60;19.50;;;;;;5115526;28;20073;-69
2021/03/01 03:30:34;;;;;;;42.92;11.85;;;15.50;19.50;;;;;;5113820;28;20002;-69
2021/03/01 03:33:02;;;;;;;46.33;13.40;;;15.40;19.40;;;;;;5109701;28;21809;-69
2021/03/01 03:35:33;;;;;;;43.95;12.48;;;15.20;19.20;;;;;;5110997;28;20073;-70
2021/03/01 03:38:11;;;;;;;50.00;13.25;;;15.10;19.00;;;;;;5109579;28;20069;-69
2021/03/01 03:40:42;;;;;;;59.78;15.10;;;15.00;18.20;;;;;;5109643;28;20079;-69
2021/03/01 03:43:09;;;;;;;58.63;14.82;;;14.90;18.20;;;;;;5114200;28;20091;-68
2021/03/01 03:45:36;;;;;;;46.38;14.45;;;14.80;18.80;;;;;;5109119;28;20107;-69
2021/03/01 03:48:05;;;;;;;61.90;15.88;;;14.80;19.10;;;;;;5109034;28;20079;-69
2021/03/01 03:50:34;;;;;;;67.93;16.38;;;14.80;20.50;;;;;;5111664;28;20084;-67
2021/03/01 03:53:12;;;;;;;63.65;17.38;;;14.80;20.60;;;;;;5105914;28;20100;-69
2021/03/01 03:55:45;;;;;;;51.83;15.43;;;14.70;21.10;;;;;;5111660;28;20100;-67
2021/03/01 03:58:19;;;;;;;49.70;14.98;;;14.70;21.60;;;;;;5108928;28;20507;-68
2021/03/01 04:00:52;;;;;;;50.22;14.68;;;14.60;22.10;;;;;;5105849;28;20126;-69
2021/03/01 04:03:22;;;;;;;56.92;15.27;;;14.50;21.00;;;;;;5129303;27;20080;-70
2021/03/01 04:05:53;;;;;;;47.50;14.95;;;14.40;20.00;;;;;;5108251;28;20473;-67
2021/03/01 04:08:22;;;;;;;56.65;16.42;;;14.30;19.60;;;;;;5106481;28;20073;-69
2021/03/01 04:10:52;;;;;;;78.70;18.17;;;14.30;19.40;;;;;;5113737;28;20126;-71
2021/03/01 04:13:22;;;;;;;64.60;16.90;;;14.30;20.00;;;;;;5108499;28;20085;-67
2021/03/01 04:15:50;;;;;;;77.70;18.00;;;14.20;20.50;;;;;;5109071;28;20122;-69
2021/03/01 04:18:33;;;;;;;64.45;17.83;;;14.20;20.60;;;;;;5114262;28;20562;-68
2021/03/01 04:21:03;;;;;;;68.95;20.63;;;14.10;21.20;;;;;;5109136;28;20072;-69
2021/03/01 04:23:32;;;;;;;78.55;20.05;;;14.10;20.80;;;;;;5120477;27;20072;-69
2021/03/01 04:26:00;;;;;;;72.03;20.27;;;14.10;20.20;;;;;;5095985;28;20076;-68
2021/03/01 04:28:28;;;;;;;82.57;23.08;;;14.10;20.70;;;;;;5100120;28;20088;-68
2021/03/01 04:30:59;;;;;;;88.63;21.08;;;14.10;20.70;;;;;;5096915;28;20075;-72
2021/03/01 04:33:26;;;;;;;78.10;20.55;;;14.10;20.50;;;;;;5095698;28;20164;-69
2021/03/01 04:35:55;;;;;;;85.30;18.90;;;14.00;20.20;;;;;;5096040;28;20076;-68
2021/03/01 04:38:22;;;;;;;90.15;20.20;;;14.00;21.00;;;;;;5096425;28;20112;-69
2021/03/01 04:40:51;;;;;;;76.20;17.75;;;14.00;21.90;;;;;;5098701;28;20068;-68
2021/03/01 04:43:21;;;;;;;89.82;21.00;;;14.00;22.10;;;;;;5093631;28;20159;-67
2021/03/01 04:45:50;;;;;;;92.47;21.02;;;13.90;22.20;;;;;;5095282;28;20439;-67
2021/03/01 04:48:17;;;;;;;88.20;19.67;;;13.70;32.10;;;;;;5094754;28;21592;-69
2021/03/01 04:50:50;;;;;;;93.25;20.20;;;13.80;22.60;;;;;;5097327;28;20072;-70
2021/03/01 04:53:18;;;;;;;97.63;22.65;;;13.70;22.80;;;;;;5100475;28;20092;-69
2021/03/01 04:55:48;;;;;;;70.72;23.33;;;13.60;22.30;;;;;;5093334;28;20069;-68
2021/03/01 04:58:19;;;;;;;69.43;23.85;;;13.50;25.90;;;;;;5098623;28;20126;-68
2021/03/01 05:00:46;;;;;;;87.20;23.70;;;13.20;31.90;;;;;;5098588;28;20130;-67
2021/03/01 05:03:13;;;;;;;84.68;20.98;;;13.10;36.50;;;;;;5102664;28;20068;-68
2021/03/01 05:05:41;;;;;;;75.78;22.27;;;13.10;41.00;;;;;;5092191;28;20073;-67
2021/03/01 05:08:16;;;;;;;81.43;22.83;;;13.50;23.60;;;;;;5098283;28;20079;-67
2021/03/01 05:10:44;;;;;;;79.72;21.10;;;13.40;23.70;;;;;;5098268;28;20072;-67
2021/03/01 05:13:11;;;;;;;81.30;21.17;;;13.40;24.00;;;;;;5094635;28;20140;-67
2021/03/01 05:15:37;;;;;;;75.43;19.05;;;13.10;48.00;;;;;;5098331;28;20088;-67
2021/03/01 05:18:03;;;;;;;;;;;13.30;24.00;;;;;;5081250;28;20125;-68
2021/03/01 05:20:30;;;;;;;79.68;19.88;;;13.10;22.10;;;;;;5094868;28;20051;-67
2021/03/01 05:22:56;;;;;;;;;;;13.20;22.40;;;;;;5095759;28;20088;-69
2021/03/01 05:25:23;;;;;;;73.28;21.42;;;13.10;22.40;;;;;;5098094;28;20001;-68
2021/03/01 05:27:49;;;;;;;;;;;;;;;;;;5098754;28;20187;-68
2021/03/01 05:30:16;;;;;;;95.95;25.30;;;13.00;22.20;;;;;;5100769;28;19986;-67
2021/03/01 05:32:42;;;;;;;107.07;27.00;;;13.00;22.70;;;;;;5095421;28;20104;-68
2021/03/01 05:35:09;;;;;;;;;;;13.00;22.90;;;;;;5096019;28;20080;-68
2021/03/01 05:37:36;;;;;;;120.32;29.60;;;13.00;23.10;;;;;;5098591;28;19992;-68
2021/03/01 05:40:04;;;;;;;92.93;30.02;;;13.00;23.00;;;;;;5078324;28;20096;-67
2021/03/01 05:42:33;;;;;;;99.85;31.88;;;13.00;24.10;;;;;;5095186;28;20073;-67
2021/03/01 05:45:02;;;;;;;104.43;26.00;;;13.00;23.60;;;;;;5095542;28;20083;-67
2021/03/01 05:47:30;;;;;;;74.03;22.98;;;13.00;23.80;;;;;;5094115;28;20519;-68
2021/03/01 05:49:59;;;;;;;94.43;23.52;;;12.90;23.60;;;;;;5097720;28;20202;-68
2021/03/01 05:52:28;;;;;;;90.32;20.65;;;12.90;22.70;;;;;;5098570;28;20183;-67
2021/03/01 05:54:56;;;;;;;93.97;21.63;;;12.80;22.00;;;;;;5098247;28;20065;-67
2021/03/01 05:57:23;;;;;;;73.65;18.25;;;12.80;22.00;;;;;;5099573;28;20091;-68
2021/03/01 05:59:51;;;;;;;78.85;19.75;;;12.80;22.40;;;;;;5093304;28;21459;-67
2021/03/01 06:02:18;;;;;;;77.13;20.50;;;12.80;21.80;;;;;;5094455;28;20075;-68
2021/03/01 06:04:45;;;;;;;72.20;18.80;;;12.80;21.90;;;;;;5093416;28;20072;-68
2021/03/01 06:07:11;;;;;;;68.55;19.48;;;12.70;21.20;;;;;;5101628;28;20092;-67
2021/03/01 06:09:40;;;;;;;89.18;21.02;;;12.70;21.00;;;;;;5092514;28;20061;-67
2021/03/01 06:12:07;;;;;;;88.10;23.08;;;12.80;21.00;;;;;;5093214;28;20123;-67
2021/03/01 06:14:34;;;;;;;71.25;18.75;;;12.80;21.20;;;;;;5097634;28;20080;-68
2021/03/01 06:17:19;;;;;;;58.63;18.25;;;12.80;21.40;;;;;;5097925;28;20476;-67
2021/03/01 06:19:47;;;;;;;69.65;16.08;;;12.80;21.50;;;;;;5095500;28;20088;-69
2021/03/01 06:22:14;;;;;;;53.75;15.68;;;12.70;20.40;;;;;;5097240;28;20065;-66
2021/03/01 06:24:42;;;;;;;70.72;17.55;;;12.70;20.60;;;;;;5096306;28;20082;-67
2021/03/01 06:27:10;;;;;;;71.57;16.98;;;12.70;20.30;;;;;;5096170;28;20096;-67
2021/03/01 06:30:10;;;;;;;58.35;18.30;;;12.70;20.70;;;;;;5092470;28;20159;-68
2021/03/01 06:32:36;;;;;;;59.00;17.52;;;12.70;21.50;;;;;;5093294;28;20115;-66
2021/03/01 06:35:24;;;;;;;47.25;16.00;;;12.70;21.60;;;;;;5098743;28;20090;-67
2021/03/01 06:38:23;;;;;;;59.75;16.77;;;12.60;21.60;;;;;;5098961;28;20080;-66
2021/03/01 06:41:12;;;;;;;59.70;16.42;;;12.50;21.60;;;;;;5059282;28;20083;-68
2021/03/01 06:43:41;;;;;;;63.67;18.38;;;12.50;21.20;;;;;;5096634;28;20429;-66
2021/03/01 06:46:14;;;;;;;57.47;17.52;;;12.50;21.50;;;;;;5096635;28;20101;-67
2021/03/01 06:48:41;;;;;;;55.67;16.40;;;12.50;22.40;;;;;;5095667;28;20578;-67
2021/03/01 06:51:09;;;;;;;59.03;16.40;;;12.50;21.50;;;;;;5090937;28;20091;-67
2021/03/01 06:53:37;;;;;;;51.60;15.02;;;12.50;20.90;;;;;;5094076;28;20069;-66
2021/03/01 06:56:11;;;;;;;47.90;14.93;;;12.50;20.10;;;;;;5090683;28;20819;-67
2021/03/01 06:58:47;;;;;;;41.95;14.43;;;12.50;20.30;;;;;;5095366;28;20507;-67
2021/03/01 07:01:27;;;;;;;52.20;14.82;;;12.50;20.80;;;;;;5090193;28;20068;-67
2021/03/01 07:04:02;;;;;;;46.05;14.00;;;12.50;20.70;;;;;;5094025;28;20085;-67
2021/03/01 07:06:35;;;;;;;50.00;15.50;;;12.40;20.30;;;;;;5102866;27;20118;-66
2021/03/01 07:09:02;;;;;;;47.10;13.75;;;12.40;20.60;;;;;;5095915;28;20804;-67
2021/03/01 07:11:34;;;;;;;42.92;14.07;;;12.40;20.80;;;;;;5092850;28;20119;-66
2021/03/01 07:14:11;;;;;;;49.25;13.82;;;12.40;21.10;;;;;;5088845;28;20088;-66
2021/03/01 07:16:50;;;;;;;33.05;14.07;;;12.40;20.70;;;;;;5094774;28;20064;-66
2021/03/01 07:19:36;;;;;;;44.33;13.77;;;12.40;20.70;;;;;;5091963;28;20104;-67
2021/03/01 07:22:06;;;;;;;43.83;13.83;;;12.30;22.20;;;;;;5091291;28;20072;-66
2021/03/01 07:24:33;;;;;;;37.47;12.38;;;12.30;21.60;;;;;;5093735;28;20429;-66
2021/03/01 07:27:02;;;;;;;35.30;12.45;;;12.20;22.00;;;;;;5091106;28;20075;-66
2021/03/01 07:29:35;;;;;;;35.25;12.98;;;12.10;22.20;;;;;;5093811;28;20064;-66
2021/03/01 07:32:04;;;;;;;34.67;13.77;;;12.10;22.90;;;;;;5091087;28;20105;-66
2021/03/01 07:34:32;;;;;;;35.55;12.88;;;12.00;23.20;;;;;;5093776;28;20147;-65
2021/03/01 07:37:00;;;;;;;36.80;12.52;;;12.10;23.70;;;;;;5103785;28;20444;-66
2021/03/01 07:39:28;;;;;;;34.67;11.57;;;12.00;23.30;;;;;;5093003;28;20069;-65
2021/03/01 07:41:56;;;;;;;40.95;11.65;;;12.00;23.50;;;;;;5095759;28;20068;-65
2021/03/01 07:44:31;;;;;;;30.63;11.40;;;12.00;23.80;;;;;;5093189;28;20076;-66
2021/03/01 07:46:58;;;;;;;39.95;12.55;;;12.00;23.80;;;;;;5090727;28;20068;-66
2021/03/01 07:49:42;;;;;;;36.38;12.60;;;11.80;24.10;;;;;;5095191;28;20087;-66
2021/03/01 07:52:21;;;;;;;35.70;11.82;;;11.80;24.10;;;;;;5095079;28;20544;-67
2021/03/01 07:54:59;;;;;;;30.73;11.27;;;11.80;23.80;;;;;;5092697;28;20072;-67
2021/03/01 07:57:30;;;;;;;38.90;12.38;;;11.70;24.70;;;;;;5090632;28;20072;-65
2021/03/01 07:59:59;;;;;;;40.13;11.48;;;11.70;24.80;;;;;;5097376;28;20164;-66
2021/03/01 08:02:26;;;;;;;34.42;10.80;;;11.60;24.90;;;;;;5097689;28;20398;-66
2021/03/01 08:04:55;;;;;;;36.83;9.80;;;11.60;25.40;;;;;;5107633;27;20114;-65
2021/03/01 08:07:42;;;;;;;38.53;10.25;;;11.60;24.90;;;;;;5097270;28;20073;-66
2021/03/01 08:10:32;;;;;;;36.25;9.95;;;11.60;24.90;;;;;;5097419;28;20080;-66
2021/03/01 08:13:08;;;;;;;31.15;9.10;;;11.40;24.10;;;;;;5089281;28;20122;-66
2021/03/01 08:15:44;;;;;;;33.83;7.33;;;11.50;24.70;;;;;;5096821;28;20467;-66
2021/03/01 08:18:13;;;;;;;31.27;8.60;;;11.50;25.50;;;;;;5100124;28;20436;-67
2021/03/01 08:20:52;;;;;;;29.80;7.15;;;11.40;25.50;;;;;;5095488;28;20073;-66
2021/03/01 08:23:19;;;;;;;24.67;6.72;;;11.40;25.00;;;;;;5092840;28;20073;-66
2021/03/01 08:25:48;;;;;;;24.33;6.40;;;11.40;24.90;;;;;;5097926;28;20097;-66
2021/03/01 08:28:18;;;;;;;18.50;5.82;;;11.40;24.60;;;;;;5095611;28;20139;-67
2021/03/01 08:30:46;;;;;;;24.77;4.68;;;11.40;24.80;;;;;;5095917;28;20072;-66
2021/03/01 08:33:13;;;;;;;18.80;4.85;;;11.30;24.60;;;;;;5093758;28;20187;-66
2021/03/01 08:35:40;;;;;;;14.48;4.10;;;11.40;24.90;;;;;;5112351;27;20421;-65
2021/03/01 08:38:08;;;;;;;12.57;3.88;;;11.40;24.90;;;;;;5100512;28;20076;-67
2021/03/01 08:40:35;;;;;;;11.73;3.83;;;11.40;25.20;;;;;;5095477;28;20094;-66
2021/03/01 08:43:06;;;;;;;19.35;3.85;;;11.40;25.50;;;;;;5094003;28;20077;-68
2021/03/01 08:45:43;;;;;;;18.80;4.28;;;11.30;25.10;;;;;;5095234;28;20455;-66
2021/03/01 08:48:19;;;;;;;13.88;4.07;;;11.30;25.10;;;;;;5095362;28;20078;-66
2021/03/01 08:50:50;;;;;;;10.77;4.32;;;11.30;25.50;;;;;;5101099;28;20126;-66
2021/03/01 08:53:28;;;;;;;20.70;4.40;;;11.30;24.90;;;;;;5092022;28;20590;-66
2021/03/01 08:55:56;;;;;;;16.33;5.20;;;11.30;25.30;;;;;;5091200;28;20068;-66
2021/03/01 08:58:24;;;;;;;15.93;4.70;;;11.10;25.60;;;;;;5093552;28;20072;-65
2021/03/01 09:00:58;;;;;;;18.30;5.03;;;11.00;26.00;;;;;;5095573;28;20095;-67
2021/03/01 09:03:29;;;;;;;16.48;5.45;;;11.00;26.20;;;;;;5093836;28;20075;-66
2021/03/01 09:06:13;;;;;;;18.30;5.90;;;10.90;26.20;;;;;;5093571;28;20068;-66
2021/03/01 09:08:44;;;;;;;29.52;5.88;;;11.00;25.70;;;;;;5094488;28;20069;-66
2021/03/01 09:11:16;;;;;;;23.60;7.65;;;10.90;26.00;;;;;;5098378;28;20076;-65
2021/03/01 09:13:45;;;;;;;30.10;7.78;;;10.90;26.10;;;;;;5093506;28;20072;-65
2021/03/01 09:16:23;;;;;;;36.00;8.00;;;10.90;26.00;;;;;;5092802;28;20173;-65
2021/03/01 09:18:58;;;;;;;41.55;8.82;;;10.80;26.00;;;;;;5091905;28;20528;-65
2021/03/01 09:21:25;;;;;;;38.03;9.57;;;10.80;26.20;;;;;;5097657;28;20102;-67
2021/03/01 09:23:52;;;;;;;41.95;11.55;;;10.80;26.10;;;;;;5094574;28;20074;-66
2021/03/01 09:26:29;;;;;;;48.35;12.05;;;10.80;26.20;;;;;;5090567;28;20084;-66
2021/03/01 09:28:58;;;;;;;49.28;13.05;;;10.70;26.00;;;;;;5094354;28;20471;-67
2021/03/01 09:31:26;;;;;;;51.13;13.52;;;10.80;26.30;;;;;;5092865;28;20106;-65
2021/03/01 09:33:54;;;;;;;50.47;14.05;;;10.70;26.40;;;;;;5096443;28;20077;-66
2021/03/01 09:36:20;;;;;;;52.80;13.07;;;10.80;26.30;;;;;;5092113;28;20514;-65
2021/03/01 09:38:52;;;;;;;53.60;13.45;;;10.80;26.50;;;;;;5092396;28;20084;-66
2021/03/01 09:41:19;;;;;;;47.92;12.00;;;10.80;26.50;;;;;;5098315;28;20068;-66
2021/03/01 09:43:49;;;;;;;63.58;15.13;;;10.80;27.10;;;;;;5102934;27;20491;-65
2021/03/01 09:46:17;;;;;;;44.60;13.07;;;10.80;27.20;;;;;;5098349;28;20425;-66
2021/03/01 09:49:07;;;;;;;52.00;15.32;;;10.80;27.50;;;;;;5094289;28;20129;-66
2021/03/01 09:51:35;;;;;;;55.75;13.93;;;10.80;27.80;;;;;;5093458;28;20089;-66
2021/03/01 09:54:03;;;;;;;63.10;14.32;;;10.80;27.80;;;;;;5099179;28;20076;-66
2021/03/01 09:56:45;;;;;;;51.65;13.82;;;10.70;27.00;;;;;;5091707;28;20068;-65
2021/03/01 09:59:12;;;;;;;56.15;14.18;;;10.70;27.10;;;;;;5092409;28;20175;-66
2021/03/01 10:01:39;;;;;;;51.00;12.98;;;10.70;27.10;;;;;;5095139;28;20079;-66
2021/03/01 10:04:06;;;;;;;65.55;14.00;;;10.60;28.20;;;;;;5088577;28;20525;-66
2021/03/01 10:06:35;;;;;;;52.95;13.98;;;10.50;28.50;;;;;;5093116;28;20134;-66
2021/03/01 10:09:12;;;;;;;59.47;15.20;;;10.50;27.70;;;;;;5093860;28;20516;-66
2021/03/01 10:11:39;;;;;;;55.47;14.95;;;10.40;27.30;;;;;;5090393;28;20112;-67
2021/03/01 10:14:11;;;;;;;53.85;14.95;;;10.40;28.40;;;;;;5094754;28;20594;-66
2021/03/01 10:16:40;;;;;;;45.38;13.27;;;10.40;28.10;;;;;;5089723;28;20176;-66
2021/03/01 10:19:22;;;;;;;39.70;13.52;;;10.40;28.20;;;;;;5095250;28;20089;-65
2021/03/01 10:21:50;;;;;;;43.10;13.60;;;10.40;28.50;;;;;;5098777;28;20167;-65
2021/03/01 10:24:21;;;;;;;48.72;12.35;;;10.40;28.20;;;;;;5092620;28;20095;-66
2021/03/01 10:27:04;;;;;;;44.47;12.90;;;10.30;27.90;;;;;;5095867;28;20072;-67
2021/03/01 10:29:35;;;;;;;54.78;13.27;;;10.30;27.40;;;;;;5093632;28;20083;-65
2021/03/01 10:32:03;;;;;;;48.08;14.30;;;10.20;27.50;;;;;;5096321;28;20097;-65
2021/03/01 10:34:29;;;;;;;46.75;12.77;;;10.30;28.10;;;;;;5092785;28;20094;-66
2021/03/01 10:36:58;;;;;;;;;;;10.20;28.80;;;;;;5090992;28;20077;-66
2021/03/01 10:39:29;;;;;;;53.65;14.77;;;10.20;28.80;;;;;;5091264;28;20484;-66
2021/03/01 10:41:58;;;;;;;45.92;13.98;;;10.20;28.30;;;;;;5089672;28;21495;-66
2021/03/01 10:44:32;;;;;;;52.80;14.52;;;10.20;28.70;;;;;;5093898;28;20594;-66
2021/03/01 10:47:12;;;;;;;48.63;12.90;;;10.10;28.60;;;;;;5089267;28;20130;-66
2021/03/01 10:49:39;;;;;;;51.47;13.55;;;10.10;28.90;;;;;;5091931;28;20068;-65
2021/03/01 10:52:08;;;;;;;41.33;12.65;;;10.10;29.60;;;;;;5093134;28;20118;-65
2021/03/01 10:54:36;;;;;;;45.08;13.05;;;10.00;29.20;;;;;;5093265;28;20080;-67
2021/03/01 10:57:03;;;;;;;45.00;13.80;;;10.00;28.90;;;;;;5093728;28;20485;-65
2021/03/01 10:59:30;;;;;;;54.45;13.38;;;10.00;28.90;;;;;;5094820;28;20073;-66
2021/03/01 11:01:57;;;;;;;49.00;13.65;;;9.90;29.40;;;;;;5094076;28;20728;-65
2021/03/01 11:04:25;;;;;;;50.33;14.52;;;9.90;29.70;;;;;;5091097;28;20071;-66
2021/03/01 11:06:52;;;;;;;54.95;13.15;;;9.90;30.00;;;;;;5094466;28;20432;-66
2021/03/01 11:09:20;;;;;;;39.97;12.63;;;9.90;30.10;;;;;;5091724;28;20409;-66
2021/03/01 11:11:49;;;;;;;46.03;13.80;;;9.90;30.50;;;;;;5091739;28;20191;-66
2021/03/01 11:14:17;;;;;;;41.22;13.05;;;9.90;30.20;;;;;;5092723;28;20067;-66
2021/03/01 11:16:43;;;;;;;50.65;12.75;;;9.80;30.70;;;;;;5092912;28;20104;-66
2021/03/01 11:19:11;;;;;;;;;;;9.80;30.10;;;;;;5090686;28;20148;-66
2021/03/01 11:21:38;;;;;;;52.33;14.20;;;9.70;30.20;;;;;;5094714;28;20034;-66
2021/03/01 11:24:06;;;;;;;48.13;14.23;;;9.60;30.70;;;;;;5088928;28;20081;-66
2021/03/01 11:26:33;;;;;;;48.88;13.48;;;9.70;31.10;;;;;;5093678;28;20552;-66
2021/03/01 11:29:00;;;;;;;42.17;13.07;;;9.60;30.70;;;;;;5090705;28;20115;-66
2021/03/01 11:31:31;;;;;;;41.90;12.90;;;9.50;30.30;;;;;;5094736;28;20100;-66
2021/03/01 11:34:01;;;;;;;48.88;13.30;;;9.60;31.20;;;;;;5088315;28;20072;-65
2021/03/01 11:36:28;;;;;;;46.25;13.32;;;9.60;30.90;;;;;;5095417;28;20151;-65
2021/03/01 11:38:55;;;;;;;47.25;13.55;;;9.50;31.20;;;;;;5098750;28;20069;-65
2021/03/01 11:41:22;;;;;;;44.22;12.80;;;9.50;31.20;;;;;;5097558;28;20107;-66
2021/03/01 11:43:49;;;;;;;;;;;9.50;31.80;;;;;;5100017;28;20108;-65
2021/03/01 11:46:16;;;;;;;44.63;12.93;;;9.50;31.80;;;;;;5092503;27;20380;-65
2021/03/01 11:48:43;;;;;;;42.80;13.18;;;9.50;32.40;;;;;;5094516;28;20100;-65
2021/03/01 11:51:10;;;;;;;43.85;13.27;;;9.50;31.80;;;;;;5092803;28;20091;-66
2021/03/01 11:53:38;;;;;;;40.40;12.88;;;9.50;32.40;;;;;;5095580;28;20076;-65
2021/03/01 11:56:06;;;;;;;48.13;12.90;;;9.50;32.80;;;;;;5095208;28;20126;-65
2021/03/01 11:58:32;;;;;;;48.50;13.55;;;9.30;32.80;;;;;;5099192;28;20540;-65
2021/03/01 12:00:59;;;;;;;45.20;12.65;;;9.30;32.90;;;;;;5096436;28;20083;-66
2021/03/01 12:03:25;;;;;;;;;;;9.40;32.60;;;;;;5095161;28;20080;-66
2021/03/01 12:05:51;;;;;;;38.30;12.38;;;9.40;32.60;;;;;;5097135;28;20027;-66
2021/03/01 12:08:17;;;;;;;;;;;9.50;33.00;;;;;;5097251;28;20068;-65
2021/03/01 12:10:44;;;;;;;43.20;12.40;;;9.40;33.20;;;;;;5093167;28;19957;-65
2021/03/01 12:13:10;;;;;;;;;;;9.40;33.30;;;;;;5110581;27;20202;-65
2021/03/01 12:15:36;;;;;;;56.08;14.88;;;9.30;33.40;;;;;;5096192;28;19956;-66
2021/03/01 12:18:05;;;;;;;64.15;13.30;;;9.20;33.80;;;;;;5093014;28;20076;-66
2021/03/01 12:20:32;;;;;;;43.50;13.30;;;9.20;33.90;;;;;;5090965;28;20083;-66
2021/03/01 12:22:58;;;;;;;51.45;13.40;;;9.30;33.80;;;;;;5100415;28;20156;-66
2021/03/01 12:25:26;;;;;;;43.42;14.85;;;9.30;33.40;;;;;;5097455;28;20072;-66
2021/03/01 12:27:52;;;;;;;;;;;9.10;33.70;;;;;;5096975;28;20410;-66
2021/03/01 12:30:19;;;;;;;45.80;13.82;;;9.10;33.30;;;;;;5096273;28;19971;-66
2021/03/01 12:32:46;;;;;;;41.67;13.90;;;9.10;33.10;;;;;;5093874;28;20150;-66
2021/03/01 12:35:12;;;;;;;;;;;9.00;33.10;;;;;;5092823;28;20077;-66
2021/03/01 12:37:39;;;;;;;48.72;13.18;;;9.10;33.90;;;;;;5096557;28;19956;-67
2021/03/01 12:40:06;;;;;;;46.28;14.20;;;9.10;33.60;;;;;;5094632;28;20068;-64
2021/03/01 12:42:33;;;;;;;41.58;14.20;;;9.00;33.40;;;;;;5095072;28;20096;-65
2021/03/01 12:45:00;;;;;;;46.78;13.98;;;9.10;34.10;;;;;;5096423;28;20065;-66
2021/03/01 12:47:27;;;;;;;52.10;14.30;;;9.00;34.90;;;;;;5096015;28;20069;-66
2021/03/01 12:49:54;;;;;;;48.97;14.18;;;9.00;34.70;;;;;;5097120;28;20080;-66
2021/03/01 12:52:20;;;;;;;52.33;14.30;;;9.00;33.80;;;;;;5093448;28;20429;-66
2021/03/01 12:54:46;;;;;;;;;;;9.10;33.50;;;;;;5093308;28;20404;-65
2021/03/01 12:57:13;;;;;;;52.05;14.93;;;9.10;33.50;;;;;;5094175;28;19965;-66
2021/03/01 12:59:39;;;;;;;;;;;9.10;33.50;;;;;;5093286;28;20129;-65
2021/03/01 13:02:06;;;;;;;55.92;16.27;;;9.10;33.50;;;;;;5098140;28;20346;-66
2021/03/01 13:04:32;;;;;;;;;;;9.00;33.50;;;;;;5093985;27;20073;-64
2021/03/01 13:07:02;;;;;;;47.17;15.07;;;9.00;33.50;;;;;;5095551;28;20336;-65
2021/03/01 13:09:28;;;;;;;57.55;14.98;;;9.00;34.00;;;;;;5094917;28;20064;-66
2021/03/01 13:11:55;;;;;;;;;;;9.00;34.40;;;;;;5096296;28;20607;-65
2021/03/01 13:14:21;;;;;;;50.05;15.95;;;9.00;34.60;;;;;;5093186;28;20421;-65
2021/03/01 13:16:47;;;;;;;;;;;9.00;34.70;;;;;;5091201;28;20521;-65
2021/03/01 13:19:14;;;;;;;49.30;14.88;;;9.00;35.10;;;;;;5090746;28;20415;-65
2021/03/01 13:21:40;;;;;;;38.28;15.35;;;8.90;35.10;;;;;;5094466;28;20457;-65
2021/03/01 13:24:07;;;;;;;;;;;9.00;35.60;;;;;;5095204;28;20072;-65
2021/03/01 13:26:33;;;;;;;47.40;14.43;;;8.90;34.50;;;;;;5097166;28;20006;-65
2021/03/01 13:28:59;;;;;;;;;;;8.90;34.50;;;;;;5094415;28;20076;-66
2021/03/01 13:31:26;;;;;;;58.83;19.42;;;8.80;33.90;;;;;;5095855;27;19964;-65
2021/03/01 13:33:52;;;;;;;69.28;24.33;;;8.80;33.10;;;;;;5092619;28;20077;-65
2021/03/01 13:36:19;;;;;;;80.38;27.30;;;8.70;33.00;;;;;;5089645;28;20071;-66
2021/03/01 13:38:46;;;;;;;76.57;28.55;;;8.70;33.60;;;;;;5099254;28;20172;-66
2021/03/01 13:41:13;;;;;;;93.25;32.97;;;8.80;33.70;;;;;;5095826;28;20492;-67
2021/03/01 13:43:39;;;;;;;;;;;8.70;34.20;;;;;;5091970;28;20077;-65
2021/03/01 13:46:05;;;;;;;136.57;54.80;;;8.70;34.10;;;;;;5090151;28;19956;-65
2021/03/01 13:48:32;;;;;;;;;;;8.70;33.50;;;;;;5095522;28;20526;-66
2021/03/01 13:50:58;;;;;;;182.93;72.82;;;8.70;33.30;;;;;;5094159;28;20397;-65
2021/03/01 13:53:24;;;;;;;;;;;8.70;33.40;;;;;;5095883;28;20092;-66
2021/03/01 13:55:51;;;;;;;182.80;67.75;;;8.60;33.10;;;;;;5092027;28;19957;-65
2021/03/01 13:58:17;;;;;;;;;;;8.50;33.10;;;;;;5091929;28;20142;-66
2021/03/01 14:00:43;;;;;;;96.70;33.83;;;8.50;33.20;;;;;;5091092;28;20606;-65
2021/03/01 14:03:09;;;;;;;;;;;8.40;33.40;;;;;;5093017;28;20080;-66
2021/03/01 14:05:36;;;;;;;88.43;25.75;;;8.50;33.60;;;;;;5092853;28;19957;-65
2021/03/01 14:08:02;;;;;;;;;;;8.50;33.80;;;;;;5092268;28;20551;-65
2021/03/01 14:10:29;;;;;;;70.70;22.20;;;8.50;34.20;;;;;;5096686;28;20052;-66
2021/03/01 14:12:55;;;;;;;;;;;8.50;34.40;;;;;;5096861;28;20112;-66
2021/03/01 14:15:21;;;;;;;62.28;20.80;;;8.40;35.20;;;;;;5094714;28;19996;-65
2021/03/01 14:17:48;;;;;;;;;;;8.40;35.40;;;;;;5095195;28;20102;-66
2021/03/01 14:20:15;;;;;;;61.28;19.52;;;8.50;35.30;;;;;;5092694;28;19972;-66
2021/03/01 14:22:42;;;;;;;61.40;17.55;;;8.40;34.70;;;;;;5094019;28;20075;-65
2021/03/01 14:25:08;;;;;;;;;;;8.50;34.60;;;;;;5097096;28;20095;-66
2021/03/01 14:27:35;;;;;;;49.83;16.55;;;8.50;34.40;;;;;;5095345;28;19999;-65
2021/03/01 14:30:01;;;;;;;45.78;16.08;;;8.40;34.60;;;;;;5094959;28;20433;-66
2021/03/01 14:32:28;;;;;;;59.47;16.02;;;8.50;34.70;;;;;;5095666;28;20268;-65
2021/03/01 14:34:54;;;;;;;;;;;8.50;34.90;;;;;;5094715;28;20068;-66
2021/03/01 14:37:21;;;;;;;51.00;14.77;;;8.60;34.60;;;;;;5099425;28;20332;-66
2021/03/01 14:39:47;;;;;;;;;;;8.60;34.40;;;;;;5097898;28;20076;-65
2021/03/01 14:42:13;;;;;;;53.08;13.15;;;8.70;34.20;;;;;;5094027;28;19998;-66
2021/03/01 14:44:39;;;;;;;;;;;8.70;34.10;;;;;;5093692;28;20080;-66
2021/03/01 14:47:06;;;;;;;47.33;12.77;;;8.70;34.20;;;;;;5091155;28;20035;-66
2021/03/01 14:49:32;;;;;;;;;;;8.80;33.80;;;;;;5093277;28;20081;-66
2021/03/01 14:51:59;;;;;;;64.45;11.38;;;8.80;34.10;;;;;;5096346;28;19991;-66
2021/03/01 14:54:25;;;;;;;41.95;10.85;;;8.70;33.80;;;;;;5093221;28;20064;-66
2021/03/01 14:56:51;;;;;;;;;;;8.80;34.00;;;;;;5097543;28;20079;-66
2021/03/01 14:59:18;;;;;;;44.03;11.15;;;8.80;33.70;;;;;;5095018;28;19956;-66
2021/03/01 15:01:44;;;;;;;;;;;8.90;33.90;;;;;;5090078;28;20065;-65
2021/03/01 15:04:11;;;;;;;40.33;9.75;;;9.00;34.10;;;;;;5093644;28;20018;-65
2021/03/01 15:06:37;;;;;;;;;;;9.00;32.90;;;;;;5094516;28;20088;-65
2021/03/01 15:09:04;;;;;;;40.47;11.82;;;9.10;33.00;;;;;;5094086;27;19957;-66
2021/03/01 15:11:31;;;;;;;34.25;10.73;;;9.10;32.30;;;;;;5098690;28;20104;-67
2021/03/01 15:13:57;;;;;;;;;;;9.20;32.00;;;;;;5098658;28;20525;-65
2021/03/01 15:16:23;;;;;;;31.95;8.70;;;9.20;32.10;;;;;;5095959;28;20364;-66
2021/03/01 15:18:49;;;;;;;;;;;9.40;32.20;;;;;;5097718;28;20073;-66
2021/03/01 15:21:16;;;;;;;32.35;7.95;;;9.40;31.40;;;;;;5094017;28;19966;-66
2021/03/01 15:23:42;;;;;;;;;;;9.50;30.60;;;;;;5091641;28;20073;-65
2021/03/01 15:26:09;;;;;;;28.73;6.75;;;9.70;31.00;;;;;;5097383;28;20017;-67
2021/03/01 15:28:35;;;;;;;32.75;6.55;;;9.80;30.20;;;;;;5094984;28;20069;-65
2021/03/01 15:31:03;;;;;;;;;;;9.90;29.50;;;;;;5095456;28;20076;-66
2021/03/01 15:33:30;;;;;;;34.25;6.47;;;10.10;29.20;;;;;;5099744;28;20074;-65
2021/03/01 15:35:56;;;;;;;17.83;6.75;;;10.10;27.10;;;;;;5091310;28;20126;-66
2021/03/01 15:38:22;;;;;;;;;;;10.30;28.10;;;;;;5100609;28;20076;-66
2021/03/01 15:40:51;;;;;;;21.70;6.38;;;10.50;28.00;;;;;;5097395;28;19956;-67
2021/03/01 15:43:18;;;;;;;27.98;7.43;;;10.80;27.60;;;;;;5093319;28;20263;-65
2021/03/01 15:45:44;;;;;;;24.52;6.47;;;10.90;26.30;;;;;;5094023;28;20104;-66
2021/03/01 15:48:10;;;;;;;;;;;11.10;26.60;;;;;;5093377;28;20083;-67
2021/03/01 15:50:37;;;;;;;34.83;6.82;;;11.30;26.50;;;;;;5098045;28;19963;-67
2021/03/01 15:53:03;;;;;;;;;;;11.50;25.90;;;;;;5099740;28;20126;-66
2021/03/01 15:55:32;;;;;;;15.98;4.90;;;11.70;25.90;;;;;;5096825;28;20050;-66